sensor_id;sensor_type;location;lat;lon;timestamp;P1;durP1;ratioP1;P2;durP2;ratioP2
18695;SDS011;22617;43.690;27.956;2022-08-02T00:02:22;6.63;;;4.70;;
18695;SDS011;22617;43.690;27.956;2022-08-02T00:07:26;6.03;;;4.20;;
18695;SDS011;22617;43.690;27.956;2022-08-02T00:12:49;5.65;;;4.13;;
18695;SDS011;22617;43.690;27.956;2022-08-02T00:18:00;5.63;;;4.63;;
18695;SDS011;22617;43.690;27.956;2022-08-02T00:23:08;5.47;;;4.45;;
18695;SDS011;22617;43.690;27.956;2022-08-02T00:28:20;5.13;;;4.60;;
18695;SDS011;22617;43.690;27.956;2022-08-02T00:33:30;5.20;;;4.70;;
18695;SDS011;22617;43.690;27.956;2022-08-02T00:38:57;6.28;;;4.50;;
18695;SDS011;22617;43.690;27.956;2022-08-02T00:44:09;4.70;;;4.07;;
18695;SDS011;22617;43.690;27.956;2022-08-02T00:49:15;5.60;;;4.40;;
18695;SDS011;22617;43.690;27.956;2022-08-02T00:54:25;6.03;;;4.78;;
18695;SDS011;22617;43.690;27.956;2022-08-02T00:59:32;4.43;;;4.00;;
18695;SDS011;22617;43.690;27.956;2022-08-02T01:04:36;4.38;;;3.80;;
18695;SDS011;22617;43.690;27.956;2022-08-02T01:09:55;5.43;;;4.85;;
18695;SDS011;22617;43.690;27.956;2022-08-02T01:15:03;5.95;;;4.53;;
18695;SDS011;22617;43.690;27.956;2022-08-02T01:20:18;5.88;;;4.72;;
18695;SDS011;22617;43.690;27.956;2022-08-02T01:25:44;6.88;;;5.35;;
18695;SDS011;22617;43.690;27.956;2022-08-02T01:31:19;4.78;;;4.03;;
18695;SDS011;22617;43.690;27.956;2022-08-02T01:36:32;5.43;;;4.55;;
18695;SDS011;22617;43.690;27.956;2022-08-02T01:41:42;6.53;;;5.78;;
18695;SDS011;22617;43.690;27.956;2022-08-02T01:47:05;6.80;;;5.75;;
18695;SDS011;22617;43.690;27.956;2022-08-02T01:52:13;7.60;;;5.85;;
18695;SDS011;22617;43.690;27.956;2022-08-02T01:57:34;7.53;;;5.38;;
18695;SDS011;22617;43.690;27.956;2022-08-02T02:02:46;5.30;;;4.47;;
18695;SDS011;22617;43.690;27.956;2022-08-02T02:07:52;5.95;;;5.05;;
18695;SDS011;22617;43.690;27.956;2022-08-02T02:13:04;5.70;;;4.82;;
18695;SDS011;22617;43.690;27.956;2022-08-02T02:18:14;6.18;;;5.22;;
18695;SDS011;22617;43.690;27.956;2022-08-02T02:23:24;6.60;;;4.75;;
18695;SDS011;22617;43.690;27.956;2022-08-02T02:28:31;8.05;;;6.40;;
18695;SDS011;22617;43.690;27.956;2022-08-02T02:33:43;9.00;;;5.70;;
18695;SDS011;22617;43.690;27.956;2022-08-02T02:38:54;7.72;;;6.28;;
18695;SDS011;22617;43.690;27.956;2022-08-02T02:44:04;10.07;;;6.88;;
18695;SDS011;22617;43.690;27.956;2022-08-02T02:49:22;7.53;;;5.70;;
18695;SDS011;22617;43.690;27.956;2022-08-02T02:54:30;9.05;;;6.07;;
18695;SDS011;22617;43.690;27.956;2022-08-02T02:59:41;9.10;;;6.72;;
18695;SDS011;22617;43.690;27.956;2022-08-02T03:04:54;9.38;;;6.40;;
18695;SDS011;22617;43.690;27.956;2022-08-02T03:10:06;10.35;;;6.60;;
18695;SDS011;22617;43.690;27.956;2022-08-02T03:15:31;8.52;;;6.32;;
18695;SDS011;22617;43.690;27.956;2022-08-02T03:20:43;8.65;;;6.35;;
18695;SDS011;22617;43.690;27.956;2022-08-02T03:25:56;9.45;;;6.55;;
18695;SDS011;22617;43.690;27.956;2022-08-02T03:31:01;8.45;;;6.50;;
18695;SDS011;22617;43.690;27.956;2022-08-02T03:36:10;9.20;;;7.25;;
18695;SDS011;22617;43.690;27.956;2022-08-02T03:41:21;8.57;;;6.82;;
18695;SDS011;22617;43.690;27.956;2022-08-02T03:46:29;8.05;;;6.72;;
18695;SDS011;22617;43.690;27.956;2022-08-02T03:51:48;8.73;;;6.47;;
18695;SDS011;22617;43.690;27.956;2022-08-02T03:56:54;9.30;;;7.07;;
18695;SDS011;22617;43.690;27.956;2022-08-02T04:02:01;13.20;;;7.63;;
18695;SDS011;22617;43.690;27.956;2022-08-02T04:07:15;8.10;;;6.77;;
18695;SDS011;22617;43.690;27.956;2022-08-02T04:12:39;7.85;;;6.38;;
18695;SDS011;22617;43.690;27.956;2022-08-02T04:17:44;8.43;;;6.60;;
18695;SDS011;22617;43.690;27.956;2022-08-02T04:22:57;8.13;;;6.60;;
18695;SDS011;22617;43.690;27.956;2022-08-02T04:28:06;9.02;;;6.75;;
18695;SDS011;22617;43.690;27.956;2022-08-02T04:33:20;8.50;;;6.15;;
18695;SDS011;22617;43.690;27.956;2022-08-02T04:38:50;7.43;;;6.00;;
18695;SDS011;22617;43.690;27.956;2022-08-02T04:43:59;9.93;;;6.10;;
18695;SDS011;22617;43.690;27.956;2022-08-02T04:49:17;8.90;;;5.78;;
18695;SDS011;22617;43.690;27.956;2022-08-02T04:54:24;9.60;;;6.90;;
18695;SDS011;22617;43.690;27.956;2022-08-02T04:59:32;8.10;;;5.95;;
18695;SDS011;22617;43.690;27.956;2022-08-02T05:04:39;9.18;;;6.07;;
18695;SDS011;22617;43.690;27.956;2022-08-02T05:09:47;7.20;;;6.18;;
18695;SDS011;22617;43.690;27.956;2022-08-02T05:14:55;8.63;;;6.70;;
18695;SDS011;22617;43.690;27.956;2022-08-02T05:20:00;9.93;;;6.25;;
18695;SDS011;22617;43.690;27.956;2022-08-02T05:25:07;9.27;;;6.53;;
18695;SDS011;22617;43.690;27.956;2022-08-02T05:30:12;9.55;;;6.30;;
18695;SDS011;22617;43.690;27.956;2022-08-02T05:35:17;9.30;;;6.40;;
18695;SDS011;22617;43.690;27.956;2022-08-02T05:40:30;11.20;;;6.13;;
18695;SDS011;22617;43.690;27.956;2022-08-02T05:45:35;9.10;;;5.97;;
18695;SDS011;22617;43.690;27.956;2022-08-02T05:51:01;10.30;;;6.55;;
18695;SDS011;22617;43.690;27.956;2022-08-02T05:56:36;10.25;;;5.85;;
18695;SDS011;22617;43.690;27.956;2022-08-02T06:01:50;9.10;;;5.82;;
18695;SDS011;22617;43.690;27.956;2022-08-02T06:07:00;7.40;;;6.13;;
18695;SDS011;22617;43.690;27.956;2022-08-02T06:12:19;9.77;;;6.43;;
18695;SDS011;22617;43.690;27.956;2022-08-02T06:17:27;7.80;;;6.15;;
18695;SDS011;22617;43.690;27.956;2022-08-02T06:22:35;9.10;;;6.25;;
18695;SDS011;22617;43.690;27.956;2022-08-02T06:27:56;11.88;;;6.40;;
18695;SDS011;22617;43.690;27.956;2022-08-02T06:33:04;7.57;;;6.20;;
18695;SDS011;22617;43.690;27.956;2022-08-02T06:38:11;8.82;;;6.07;;
18695;SDS011;22617;43.690;27.956;2022-08-02T06:43:27;9.68;;;6.57;;
18695;SDS011;22617;43.690;27.956;2022-08-02T06:48:49;7.68;;;5.70;;
18695;SDS011;22617;43.690;27.956;2022-08-02T06:54:02;8.60;;;5.97;;
18695;SDS011;22617;43.690;27.956;2022-08-02T07:04:35;9.13;;;6.18;;
18695;SDS011;22617;43.690;27.956;2022-08-02T07:09:40;7.32;;;5.43;;
18695;SDS011;22617;43.690;27.956;2022-08-02T07:20:52;6.03;;;5.43;;
18695;SDS011;22617;43.690;27.956;2022-08-02T07:32:00;7.38;;;5.65;;
18695;SDS011;22617;43.690;27.956;2022-08-02T07:37:12;9.98;;;5.68;;
18695;SDS011;22617;43.690;27.956;2022-08-02T07:42:38;6.70;;;4.78;;
18695;SDS011;22617;43.690;27.956;2022-08-02T07:47:57;8.13;;;4.82;;
18695;SDS011;22617;43.690;27.956;2022-08-02T07:53:08;9.95;;;5.00;;
18695;SDS011;22617;43.690;27.956;2022-08-02T07:58:18;5.75;;;5.13;;
18695;SDS011;22617;43.690;27.956;2022-08-02T08:03:31;7.65;;;5.07;;
18695;SDS011;22617;43.690;27.956;2022-08-02T08:08:54;6.38;;;4.90;;
18695;SDS011;22617;43.690;27.956;2022-08-02T08:14:00;9.32;;;5.22;;
18695;SDS011;22617;43.690;27.956;2022-08-02T08:19:18;6.90;;;5.40;;
18695;SDS011;22617;43.690;27.956;2022-08-02T08:24:45;4.80;;;4.25;;
18695;SDS011;22617;43.690;27.956;2022-08-02T08:29:50;5.30;;;4.50;;
18695;SDS011;22617;43.690;27.956;2022-08-02T08:34:59;5.13;;;4.10;;
18695;SDS011;22617;43.690;27.956;2022-08-02T08:40:09;4.00;;;3.60;;
18695;SDS011;22617;43.690;27.956;2022-08-02T08:45:21;5.35;;;3.90;;
18695;SDS011;22617;43.690;27.956;2022-08-02T08:50:26;4.75;;;3.95;;
18695;SDS011;22617;43.690;27.956;2022-08-02T08:55:39;5.78;;;4.20;;
18695;SDS011;22617;43.690;27.956;2022-08-02T09:00:52;6.57;;;4.05;;
18695;SDS011;22617;43.690;27.956;2022-08-02T09:06:01;4.40;;;3.90;;
18695;SDS011;22617;43.690;27.956;2022-08-02T09:11:18;6.88;;;4.22;;
18695;SDS011;22617;43.690;27.956;2022-08-02T09:16:28;5.72;;;4.00;;
18695;SDS011;22617;43.690;27.956;2022-08-02T09:21:36;4.45;;;3.88;;
18695;SDS011;22617;43.690;27.956;2022-08-02T09:26:46;6.32;;;4.13;;
18695;SDS011;22617;43.690;27.956;2022-08-02T09:32:00;5.93;;;3.80;;
18695;SDS011;22617;43.690;27.956;2022-08-02T09:37:21;4.68;;;3.72;;
18695;SDS011;22617;43.690;27.956;2022-08-02T09:42:31;5.15;;;3.63;;
18695;SDS011;22617;43.690;27.956;2022-08-02T09:47:38;5.80;;;3.60;;
18695;SDS011;22617;43.690;27.956;2022-08-02T09:52:42;5.57;;;4.15;;
18695;SDS011;22617;43.690;27.956;2022-08-02T10:03:26;6.70;;;4.00;;
18695;SDS011;22617;43.690;27.956;2022-08-02T10:08:37;5.05;;;4.10;;
18695;SDS011;22617;43.690;27.956;2022-08-02T10:13:45;7.72;;;4.28;;
18695;SDS011;22617;43.690;27.956;2022-08-02T10:18:53;6.45;;;3.95;;
18695;SDS011;22617;43.690;27.956;2022-08-02T10:24:04;5.60;;;4.18;;
18695;SDS011;22617;43.690;27.956;2022-08-02T10:29:19;5.68;;;3.90;;
18695;SDS011;22617;43.690;27.956;2022-08-02T10:34:52;6.75;;;3.55;;
18695;SDS011;22617;43.690;27.956;2022-08-02T10:40:21;6.47;;;4.28;;
18695;SDS011;22617;43.690;27.956;2022-08-02T10:45:44;4.90;;;3.85;;
18695;SDS011;22617;43.690;27.956;2022-08-02T10:50:54;6.10;;;4.30;;
18695;SDS011;22617;43.690;27.956;2022-08-02T10:56:02;7.80;;;4.00;;
18695;SDS011;22617;43.690;27.956;2022-08-02T11:12:16;4.03;;;3.22;;
18695;SDS011;22617;43.690;27.956;2022-08-02T11:17:24;4.30;;;3.67;;
18695;SDS011;22617;43.690;27.956;2022-08-02T11:22:40;4.30;;;3.75;;
18695;SDS011;22617;43.690;27.956;2022-08-02T11:28:06;5.72;;;3.72;;
18695;SDS011;22617;43.690;27.956;2022-08-02T11:33:14;5.60;;;3.50;;
18695;SDS011;22617;43.690;27.956;2022-08-02T11:38:29;4.78;;;3.60;;
18695;SDS011;22617;43.690;27.956;2022-08-02T11:43:52;4.05;;;3.38;;
18695;SDS011;22617;43.690;27.956;2022-08-02T11:49:09;5.72;;;3.55;;
18695;SDS011;22617;43.690;27.956;2022-08-02T11:54:21;5.13;;;3.35;;
18695;SDS011;22617;43.690;27.956;2022-08-02T11:59:29;7.10;;;4.05;;
18695;SDS011;22617;43.690;27.956;2022-08-02T12:04:38;5.55;;;3.70;;
18695;SDS011;22617;43.690;27.956;2022-08-02T12:09:45;4.20;;;3.78;;
18695;SDS011;22617;43.690;27.956;2022-08-02T12:14:50;4.47;;;3.58;;
18695;SDS011;22617;43.690;27.956;2022-08-02T12:19:56;5.32;;;3.47;;
18695;SDS011;22617;43.690;27.956;2022-08-02T12:25:13;4.05;;;3.60;;
18695;SDS011;22617;43.690;27.956;2022-08-02T12:30:47;3.97;;;3.50;;
18695;SDS011;22617;43.690;27.956;2022-08-02T12:36:13;4.82;;;3.50;;
18695;SDS011;22617;43.690;27.956;2022-08-02T12:41:21;6.90;;;4.28;;
18695;SDS011;22617;43.690;27.956;2022-08-02T12:46:34;6.20;;;3.38;;
18695;SDS011;22617;43.690;27.956;2022-08-02T12:51:58;4.65;;;3.78;;
18695;SDS011;22617;43.690;27.956;2022-08-02T12:57:14;5.78;;;3.78;;
18695;SDS011;22617;43.690;27.956;2022-08-02T13:02:22;3.92;;;3.50;;
18695;SDS011;22617;43.690;27.956;2022-08-02T13:07:30;4.55;;;3.17;;
18695;SDS011;22617;43.690;27.956;2022-08-02T13:12:39;4.07;;;3.15;;
18695;SDS011;22617;43.690;27.956;2022-08-02T13:17:44;3.75;;;3.13;;
18695;SDS011;22617;43.690;27.956;2022-08-02T13:22:49;3.88;;;3.17;;
18695;SDS011;22617;43.690;27.956;2022-08-02T13:27:55;4.15;;;3.10;;
18695;SDS011;22617;43.690;27.956;2022-08-02T13:33:03;7.57;;;3.53;;
18695;SDS011;22617;43.690;27.956;2022-08-02T13:38:08;4.32;;;3.00;;
18695;SDS011;22617;43.690;27.956;2022-08-02T13:43:13;5.00;;;3.38;;
18695;SDS011;22617;43.690;27.956;2022-08-02T13:48:27;4.40;;;3.38;;
18695;SDS011;22617;43.690;27.956;2022-08-02T13:53:45;3.53;;;3.10;;
18695;SDS011;22617;43.690;27.956;2022-08-02T13:58:51;5.53;;;3.05;;
18695;SDS011;22617;43.690;27.956;2022-08-02T14:03:58;4.93;;;3.60;;
18695;SDS011;22617;43.690;27.956;2022-08-02T14:09:15;4.47;;;3.42;;
18695;SDS011;22617;43.690;27.956;2022-08-02T14:14:27;6.22;;;3.72;;
18695;SDS011;22617;43.690;27.956;2022-08-02T14:19:38;4.57;;;3.40;;
18695;SDS011;22617;43.690;27.956;2022-08-02T14:24:56;4.90;;;3.53;;
18695;SDS011;22617;43.690;27.956;2022-08-02T14:30:12;7.22;;;3.40;;
18695;SDS011;22617;43.690;27.956;2022-08-02T14:35:20;6.93;;;3.60;;
18695;SDS011;22617;43.690;27.956;2022-08-02T14:40:27;4.82;;;3.40;;
18695;SDS011;22617;43.690;27.956;2022-08-02T14:45:36;4.18;;;3.55;;
18695;SDS011;22617;43.690;27.956;2022-08-02T14:50:43;3.47;;;3.13;;
18695;SDS011;22617;43.690;27.956;2022-08-02T14:55:57;3.60;;;3.10;;
18695;SDS011;22617;43.690;27.956;2022-08-02T15:01:13;6.63;;;3.42;;
18695;SDS011;22617;43.690;27.956;2022-08-02T15:06:19;3.80;;;3.15;;
18695;SDS011;22617;43.690;27.956;2022-08-02T15:17:58;3.80;;;3.40;;
18695;SDS011;22617;43.690;27.956;2022-08-02T15:23:22;5.22;;;4.20;;
18695;SDS011;22617;43.690;27.956;2022-08-02T15:28:35;3.33;;;3.03;;
18695;SDS011;22617;43.690;27.956;2022-08-02T15:33:40;3.63;;;3.20;;
18695;SDS011;22617;43.690;27.956;2022-08-02T15:38:43;4.28;;;3.30;;
18695;SDS011;22617;43.690;27.956;2022-08-02T15:43:46;5.70;;;3.10;;
18695;SDS011;22617;43.690;27.956;2022-08-02T15:49:02;6.57;;;3.90;;
18695;SDS011;22617;43.690;27.956;2022-08-02T15:54:05;5.93;;;4.38;;
18695;SDS011;22617;43.690;27.956;2022-08-02T15:59:07;7.05;;;4.70;;
18695;SDS011;22617;43.690;27.956;2022-08-02T16:04:14;6.30;;;4.88;;
18695;SDS011;22617;43.690;27.956;2022-08-02T16:09:18;8.02;;;5.30;;
18695;SDS011;22617;43.690;27.956;2022-08-02T16:14:20;7.30;;;4.43;;
18695;SDS011;22617;43.690;27.956;2022-08-02T16:19:24;12.23;;;5.40;;
18695;SDS011;22617;43.690;27.956;2022-08-02T16:24:47;6.38;;;4.00;;
18695;SDS011;22617;43.690;27.956;2022-08-02T16:29:51;7.60;;;4.78;;
18695;SDS011;22617;43.690;27.956;2022-08-02T16:34:54;5.88;;;4.38;;
18695;SDS011;22617;43.690;27.956;2022-08-02T16:40:10;6.40;;;4.50;;
18695;SDS011;22617;43.690;27.956;2022-08-02T16:45:14;4.43;;;3.65;;
18695;SDS011;22617;43.690;27.956;2022-08-02T16:50:21;7.90;;;4.13;;
18695;SDS011;22617;43.690;27.956;2022-08-02T16:55:29;8.32;;;5.07;;
18695;SDS011;22617;43.690;27.956;2022-08-02T17:00:32;8.07;;;4.53;;
18695;SDS011;22617;43.690;27.956;2022-08-02T17:05:36;6.78;;;4.50;;
18695;SDS011;22617;43.690;27.956;2022-08-02T17:10:58;5.60;;;4.47;;
18695;SDS011;22617;43.690;27.956;2022-08-02T17:16:05;6.13;;;3.92;;
18695;SDS011;22617;43.690;27.956;2022-08-02T17:21:28;7.65;;;4.05;;
18695;SDS011;22617;43.690;27.956;2022-08-02T17:26:32;8.10;;;4.07;;
18695;SDS011;22617;43.690;27.956;2022-08-02T17:31:35;5.35;;;4.30;;
18695;SDS011;22617;43.690;27.956;2022-08-02T17:36:48;4.47;;;3.90;;
18695;SDS011;22617;43.690;27.956;2022-08-02T17:41:50;6.10;;;4.60;;
18695;SDS011;22617;43.690;27.956;2022-08-02T17:46:54;4.93;;;4.03;;
18695;SDS011;22617;43.690;27.956;2022-08-02T17:51:57;6.68;;;4.82;;
18695;SDS011;22617;43.690;27.956;2022-08-02T17:57:20;6.25;;;4.50;;
18695;SDS011;22617;43.690;27.956;2022-08-02T18:02:23;7.78;;;4.82;;
18695;SDS011;22617;43.690;27.956;2022-08-02T18:07:27;7.15;;;5.32;;
18695;SDS011;22617;43.690;27.956;2022-08-02T18:12:50;6.03;;;4.93;;
18695;SDS011;22617;43.690;27.956;2022-08-02T18:17:57;6.30;;;4.95;;
18695;SDS011;22617;43.690;27.956;2022-08-02T18:23:00;6.18;;;4.70;;
18695;SDS011;22617;43.690;27.956;2022-08-02T18:28:04;7.13;;;5.28;;
18695;SDS011;22617;43.690;27.956;2022-08-02T18:33:07;10.43;;;6.32;;
18695;SDS011;22617;43.690;27.956;2022-08-02T18:38:30;9.70;;;5.70;;
18695;SDS011;22617;43.690;27.956;2022-08-02T18:43:38;9.20;;;5.18;;
18695;SDS011;22617;43.690;27.956;2022-08-02T18:48:47;6.03;;;5.30;;
18695;SDS011;22617;43.690;27.956;2022-08-02T18:53:50;7.43;;;5.88;;
18695;SDS011;22617;43.690;27.956;2022-08-02T18:58:54;7.20;;;5.65;;
18695;SDS011;22617;43.690;27.956;2022-08-02T19:03:59;7.03;;;5.40;;
18695;SDS011;22617;43.690;27.956;2022-08-02T19:09:03;6.40;;;5.80;;
18695;SDS011;22617;43.690;27.956;2022-08-02T19:14:14;6.97;;;5.55;;
18695;SDS011;22617;43.690;27.956;2022-08-02T19:19:30;6.32;;;5.70;;
18695;SDS011;22617;43.690;27.956;2022-08-02T19:24:35;6.78;;;5.30;;
18695;SDS011;22617;43.690;27.956;2022-08-02T19:29:43;6.47;;;5.20;;
18695;SDS011;22617;43.690;27.956;2022-08-02T19:34:52;7.13;;;5.50;;
18695;SDS011;22617;43.690;27.956;2022-08-02T19:39:57;6.13;;;5.53;;
18695;SDS011;22617;43.690;27.956;2022-08-02T19:45:00;6.35;;;5.43;;
18695;SDS011;22617;43.690;27.956;2022-08-02T19:50:05;6.28;;;5.65;;
18695;SDS011;22617;43.690;27.956;2022-08-02T19:55:13;6.38;;;5.68;;
18695;SDS011;22617;43.690;27.956;2022-08-02T20:00:36;7.88;;;6.40;;
18695;SDS011;22617;43.690;27.956;2022-08-02T20:05:45;6.65;;;5.60;;
18695;SDS011;22617;43.690;27.956;2022-08-02T20:10:52;6.75;;;5.90;;
18695;SDS011;22617;43.690;27.956;2022-08-02T20:15:55;6.60;;;5.90;;
18695;SDS011;22617;43.690;27.956;2022-08-02T20:20:59;7.00;;;6.07;;
18695;SDS011;22617;43.690;27.956;2022-08-02T20:26:02;6.68;;;5.97;;
18695;SDS011;22617;43.690;27.956;2022-08-02T20:31:09;7.22;;;6.38;;
18695;SDS011;22617;43.690;27.956;2022-08-02T20:36:12;8.00;;;6.38;;
18695;SDS011;22617;43.690;27.956;2022-08-02T20:41:16;7.65;;;6.70;;
18695;SDS011;22617;43.690;27.956;2022-08-02T20:46:22;8.10;;;6.20;;
18695;SDS011;22617;43.690;27.956;2022-08-02T20:51:25;10.10;;;6.43;;
18695;SDS011;22617;43.690;27.956;2022-08-02T20:56:35;9.13;;;6.32;;
18695;SDS011;22617;43.690;27.956;2022-08-02T21:07:25;6.85;;;6.15;;
18695;SDS011;22617;43.690;27.956;2022-08-02T21:12:30;9.43;;;7.05;;
18695;SDS011;22617;43.690;27.956;2022-08-02T21:17:33;7.22;;;6.18;;
18695;SDS011;22617;43.690;27.956;2022-08-02T21:22:46;5.68;;;5.18;;
18695;SDS011;22617;43.690;27.956;2022-08-02T21:27:50;7.55;;;6.05;;
18695;SDS011;22617;43.690;27.956;2022-08-02T21:32:54;5.43;;;4.65;;
18695;SDS011;22617;43.690;27.956;2022-08-02T21:37:57;6.45;;;4.80;;
18695;SDS011;22617;43.690;27.956;2022-08-02T21:43:01;5.70;;;5.10;;
18695;SDS011;22617;43.690;27.956;2022-08-02T21:48:09;5.13;;;4.63;;
18695;SDS011;22617;43.690;27.956;2022-08-02T21:53:13;7.78;;;5.25;;
18695;SDS011;22617;43.690;27.956;2022-08-02T21:58:37;5.47;;;4.88;;
18695;SDS011;22617;43.690;27.956;2022-08-02T22:03:39;4.85;;;4.10;;
18695;SDS011;22617;43.690;27.956;2022-08-02T22:08:56;5.63;;;4.90;;
18695;SDS011;22617;43.690;27.956;2022-08-02T22:14:00;5.68;;;5.10;;
18695;SDS011;22617;43.690;27.956;2022-08-02T22:19:03;5.22;;;4.72;;
18695;SDS011;22617;43.690;27.956;2022-08-02T22:24:07;14.98;;;6.45;;
18695;SDS011;22617;43.690;27.956;2022-08-02T22:29:21;9.27;;;6.18;;
18695;SDS011;22617;43.690;27.956;2022-08-02T22:34:23;8.95;;;5.50;;
18695;SDS011;22617;43.690;27.956;2022-08-02T22:39:47;7.65;;;5.35;;
18695;SDS011;22617;43.690;27.956;2022-08-02T22:45:11;6.38;;;5.35;;
18695;SDS011;22617;43.690;27.956;2022-08-02T22:50:14;5.95;;;4.75;;
18695;SDS011;22617;43.690;27.956;2022-08-02T22:55:17;8.48;;;5.22;;
18695;SDS011;22617;43.690;27.956;2022-08-02T23:00:23;5.65;;;5.05;;
18695;SDS011;22617;43.690;27.956;2022-08-02T23:05:26;5.13;;;4.63;;
18695;SDS011;22617;43.690;27.956;2022-08-02T23:10:28;5.88;;;4.47;;
18695;SDS011;22617;43.690;27.956;2022-08-02T23:15:31;5.22;;;4.18;;
